Terminal Aerodrome Forecast
Issued by NWS

Home | Current Version | Previous Version | Text Only | Print | Product List | Glossary On
Versions: 1 2 3 4 5 6 7 8 9 10 11 12 13 14 15 16 17 18 19 20 21 22 23 24 25 26 27
244
FTUS44 KEWX 250227 AAC
TAFSSF
TAF AMD
KSSF 250227Z 2502/2524 12009KT P6SM BKN027
      TEMPO 2502/2506 BKN025
     FM250600 12007KT P6SM SCT008 OVC015
     FM251100 12006KT P6SM OVC008
     FM251430 12007KT P6SM VCSH BKN012
     FM251730 13009KT P6SM VCSH BKN040=

USA.gov is the U.S. government's official web portal to all federal, state and local government web resources and services.